Aktualne dane pomiarowe

Uwaga, wersja testowa! Automatyczne pobieranie danych za pomocą narzędzi lub skryptów to umożliwiających jest zabronione.

Dane meteo z obszaru Polski uzyskane na podstawie depesz SYNOP pobieranych co godzinę z NWS. Najedź myszką na symbol przedstawiony w tabeli, aby uzyskać informacje co do jego znaczenia. Prosimy pamiętać, że to testowa wersja strony, która jeszcze nie jest ukończona. Stworzono również jest krótki FAQ dotyczący korzystania z tej podstrony Anomalie temperatury w chwili obecnej odniesione są do okresu referencyjnego 1951-2016. Okres ten będzie później zmieniony na 1981-2010. Kliknij ikonę aby pobrać plik CSV. Kliknij ikonę aby wygenerować mapę synoptyczną dla danego terminu.

Wybierz Datę:    

        

Zakopane (12625)

Dane terminowe dla wybranej stacji. Kliknij datę, aby otrzymać dane z tego terminu dla wszystkich stacji.

TemperaturaZachmurzenieWiatrCiśnienieOpadyPogoda
 Data t td wb tx tn tg rh  Nt Nl Cl Cm Ch ws wd g1 g2 wx mslp ppp ch 24h 12h t ww ww w1 w2  
2019-07-04 23:00:00 9.5 5.1 6.9--- 7445.0wx-1wx---- 921.2 -1.0---------
2019-07-04 22:00:00 10.0 5.0 7.1--- 7140.0wx-1wx--1- 922.0 0.0---------
2019-07-04 21:00:00 11.1 4.8 7.5--- 6545.0wx-1wx--1- 922.0 0.1---------
2019-07-04 20:00:00 12.3 5.5 8.4--- 6345.0wx-wx1wx--1- 922.2 0.3---------
2019-07-04 19:00:00 14.4 5.2 9.3--- 5450.0wx-wx1wx--1- 922.0 0.0---------
2019-07-04 18:00:00 16.9 4.2 10.2 20.7 12.8- 4350.0wxwxwxwx1wx-81- 921.9 -0.2- 0.012------
2019-07-04 17:00:00 19.1 4.8 11.4--- 3945.0wxwxwxwx2wx--2- 921.9 -0.5---------
2019-07-04 16:00:00 19.8 3.9 11.4--- 3540.0wxwxwx3wx---- 922.0 -0.7---------
2019-07-04 15:00:00 20.2 4.6 11.9--- 3630.0wxwxwx3wx-83- 922.1 -1.2---------
2019-07-04 14:00:00 19.6 3.7 11.3--- 3540.0wxwxwx4wx-84- 922.4 -1.2---------
2019-07-04 13:00:00 19.6 4.1 11.4--- 3635.0wxwxwx3wx--3- 922.7 -1.0---------
2019-07-04 12:00:00 18.9 5.0 11.4--- 4035.0wxwxwx4wx9--- 923.3 -0.3---------
2019-07-04 11:00:00 17.5 3.0 10.0--- 3840.0wxwxwx4wx--4- 923.6 0.0---------
2019-07-04 10:00:00 17.1 4.4 10.3--- 4340.0wxwxwx3wx--3- 923.7 0.0---------
2019-07-04 09:00:00 16.3 4.6 10.0--- 4635.0wxwxwx3wx--3- 923.6 -0.1---------
2019-07-04 08:00:00 15.3 3.7 9.2--- 4640.0wx-2wx--2- 923.6 0.1---------
2019-07-04 07:00:00 14.4 3.5 8.7--- 4840.0wx-2wx---- 923.7 0.3---------
2019-07-04 06:00:00 12.8 2.9 7.6 15.6 6.2 5 5140.0wx-2wx--2- 923.7 0.4- 0.012----- 12.7
2019-07-04 05:00:00 11.5 4.5 7.6--- 6235.0wx-0---0- 923.5 0.3---------
2019-07-04 04:00:00 8.0 4.2 5.7--- 7750.0wx-1wx--1- 923.4 0.2---------
2019-07-04 03:00:00 6.7 3.5 4.8--- 8045.0wx-0---0- 923.3 -0.4---------
2019-07-04 02:00:00 7.4 3.8 5.2--- 7850.0wx-1wx--1- 923.2 -0.3---------
2019-07-04 01:00:00 7.8 4.0 5.5--- 7750.0wx-wx1wx--1- 923.2 -0.5---------
2019-07-04 00:00:00 8.3 4.1 5.8--- 7550.0wx-wx1wx--1- 923.7 -0.1- 0.06------
2019-07-03 23:00:00 8.9 4.9 6.5--- 7645.0wx-wx1wx--1- 923.5 0.3---------
2019-07-03 22:00:00 9.6 4.8 6.8--- 7250.0wx-wx1wx--1- 923.7 0.9---------
2019-07-03 21:00:00 10.7 5.0 7.4--- 6850.0wx-wx1wx--1- 923.8 1.4---------
2019-07-03 20:00:00 11.9 5.1 8.0--- 6340.0wx-wx1wx--1- 923.2 1.1---------
2019-07-03 19:00:00 13.7 4.8 8.8--- 5540.0wx-wx1wx--1- 922.8 1.1---------
2019-07-03 18:00:00 15.5 3.9 9.4 19.8 14.5- 4650.0wx-wx2wx--2- 922.4 0.7- 0.012------
2019-07-03 17:00:00 17.4 5.0 10.7--- 4440.0wxwxwxwx3wx--3- 922.1 0.3---------
2019-07-03 16:00:00 19.0 5.1 11.5--- 4045.0wxwxwxwx2wx--2- 921.7 -0.3---------
2019-07-03 15:00:00 19.6 5.6 12.0--- 4040.0wxwxwxwx3wx--3- 921.7 -0.4---------
2019-07-03 14:00:00 19.1 6.6 12.2--- 4440.0wx-wx3wx--3- 921.8 -0.4---------
2019-07-03 13:00:00 18.7 6.5 11.9--- 4540.0wxwxwx3wx--3- 922.0 -0.3---------
2019-07-03 12:00:00 18.8 6.9 12.1--- 4635.0wxwxwx3wx-93- 922.1 -0.2- 0.06------
2019-07-03 11:00:00 17.3 6.2 11.1--- 4835.0wxwxwx4wx994- 922.2 0.2---------
2019-07-03 10:00:00 17.8 7.2 11.8--- 5030.0wxwxwx3wx--3- 922.3 0.4---------
2019-07-03 09:00:00 17.1 6.9 11.3--- 5135.0wxwxwx3wx8--- 922.3 0.6---------
2019-07-03 08:00:00 16.4 8.1 11.5--- 5835.0wxwxwx3wx--3- 922.0 0.3---------
2019-07-03 07:00:00 15.9 8.6 11.5--- 6240.0wxwxwx2wx--2- 921.9 0.4---------
2019-07-03 06:00:00 14.7 8.0 10.7 19.3 10.1 9 6440.0wxwxwx2wx--2- 921.7 0.2- 0.012----- 8.3
2019-07-03 05:00:00 13.3 7.7 9.9--- 6940.0wxwxwx1wx--1- 921.7 0.3---------
2019-07-03 04:00:00 10.9 7.9 9.0--- 8240.0wxwxwx0---0- 921.5 0.3---------
2019-07-03 03:00:00 10.2 7.3 8.3--- 8240.0wxwxwxwxwx1wx--1- 921.5 0.2---------
2019-07-03 02:00:00 10.9 7.2 8.6--- 7840.0wxwxwx1wx--1- 921.4 0.0---------
2019-07-03 01:00:00 12.3 7.8 9.5--- 7440.0wxwxwx1wx--1- 921.2 -0.2---------
2019-07-03 00:00:00 14.4 9.2 11.2--- 7140.0wxwxwx1wx--1- 921.3 0.1- 0.06------
4.8 ms

 

Print Friendly, PDF & Email